Ursvikens väder

stationens status  
Klimatstatistik

Klimatstatistik


Report for 2023 Aug
                   Monthly Climatological Summary for aug 2023

Name: Örvikens väder   City:    State: 
Elevation: 27 m  Lat: N 64° 42' 41"   Lon: E 021° 10' 46"

                  Temperature (°C), Rain (mm), Wind Speed (m/s)

                                      Heat  Cool        Avg
    Mean                              Deg   Deg         Wind                 Dom
Day Temp  High   Time   Low    Time   Days  Days  Rain  Speed High   Time    Dir
----------------------------------------------------------------------------------
 1  16,6  16,9   06:40  15,7   00:00   1,7   0,0   3,3   0,2   4,0   05:16    NO
 2  16,8  16,8   00:00  16,8   00:00   1,5   0,0   0,0   0,0   0,8   00:00   ---
 3  16,8  16,8   00:00  16,8   00:00   1,5   0,0   0,0   0,0   0,8   00:00   ---
 4  16,8  16,8   00:00  16,8   00:00   1,5   0,0   0,0   0,0   0,8   00:00   ---
 5  16,8  16,8   00:00  16,8   00:00   1,5   0,0   0,0   0,0   0,8   00:00   ---
 6  16,8  16,8   00:00  16,8   00:00   1,5   0,0   0,0   0,0   0,8   00:00   ---
 7  16,8  16,8   00:00  16,8   00:00   1,5   0,0   0,0   0,0   0,8   00:00   ---
 8  16,8  16,8   00:00  16,8   00:00   1,5   0,0   0,0   0,0   0,8   00:00   ---
 9  16,8  16,8   00:00  16,8   00:00   1,4   0,0   0,0   0,0   0,8   00:00   ---
10   0,0   0,0   00:21   0,0   00:21   2,3   0,0   0,0   0,0   0,0   00:21   ---
11   0,0   0,0   00:22   0,0   00:22  12,2   0,0   0,0   0,0   0,0   00:22   ---
12   0,0   0,0   00:00   0,0   00:00   0,0   0,0   0,0  ----   0,0   00:00   ---
13   0,0   0,0   00:00   0,0   00:00   0,0   0,0   0,0  ----   0,0   00:00   ---
14   0,0   0,0   00:00   0,0   00:00   0,0   0,0   0,0  ----   0,0   00:00   ---
15   0,0   0,0   00:00   0,0   00:00   0,0   0,0   0,0  ----   0,0   00:00   ---
16   0,0   0,0   00:00   0,0   00:00   0,0   0,0   0,0  ----   0,0   00:00   ---
17   0,0   0,0   00:00   0,0   00:00   0,0   0,0   0,0  ----   0,0   00:00   ---
18   0,0   0,0   00:00   0,0   00:00   0,0   0,0   0,0  ----   0,0   00:00   ---
19   0,0   0,0   00:00   0,0   00:00   0,0   0,0   0,0  ----   0,0   00:00   ---
20   0,0   0,0   00:00   0,0   00:00   0,0   0,0   0,0  ----   0,0   00:00   ---
21   0,0   0,0   00:00   0,0   00:00   0,0   0,0   0,0  ----   0,0   00:00   ---
22   0,0   0,0   00:00   0,0   00:00   0,0   0,0   0,0  ----   0,0   00:00   ---
23   0,0   0,0   00:00   0,0   00:00   0,0   0,0   0,0  ----   0,0   00:00   ---
24   0,0   0,0   00:00   0,0   00:00   0,0   0,0   0,0  ----   0,0   00:00   ---
25   0,0   0,0   00:00   0,0   00:00   0,0   0,0   0,0  ----   0,0   00:00   ---
26   5,0   5,0   01:51   0,0   00:00  12,3   0,0   0,0   1,7   3,7   01:51     N
27   8,8  20,0   16:32   5,0   00:00   9,8   0,0   0,0   1,4   6,0   17:29     N
28  15,1  17,8   14:33  12,7   23:34   3,2   0,0  15,6   0,2   4,4   19:23     N
29  15,4  22,1   15:51  10,3   23:38   3,4   0,6   7,5   0,5   7,7   15:20     V
30  13,9  22,1   11:21   7,9   04:23   4,5   0,2   0,0   0,1   4,8   11:49   SSV
31  14,2  14,8   10:29  12,4   00:00   4,1   0,0   3,6   0,9   7,2   16:57     N
----------------------------------------------------------------------------------
     7,2  22,1    29     0,0    10    65,4   0,8  30,0   0,3   7,7    29       N

Max >=  27,0:  0
Max <=   0,0: 16
Min <=   0,0: 17
Min <= -18,0:  0
Max Rain: 15,6 on day 28
Days of Rain: 4 (>= 0,2 mm)  4 (>= 2,0 mm)  0 (>= 20,0 mm)
Heat Base: 18,3  Cool Base: 18,3  Method: Integration
 
: nu: mätare: diagram: idag och igår: månad och år: rekord: månadsrekord: statistik:
Startsidan Ursviken Örviken

Välkommen till Lundströms väder
Väderstationen som används är en WH1080, Uppdaterad 2024-06-13 15:35:00
skapad av Cumulus v1.9.4 (10992)
Forum
sedan 22 dec 2012